Time;durP1;ratioP1;P1;durP2;ratioP2;P2;SDS_P1;SDS_P2;PMS_P1;PMS_P2;Temp;Humidity;BMP_temperature;BMP_pressure;BME280_temperature;BME280_humidity;BME280_pressure;Samples;Min_cycle;Max_cycle;Signal;HPM_P1;HPM_P2
2022/03/17 00:00:11;;;;;;;13.60;4.88;;;;;;;-3.05;45.58;101770.53;5029964;28;20064;-42
2022/03/17 00:02:38;;;;;;;10.38;5.25;;;;;;;-3.10;45.82;101772.84;5027280;28;20429;-42
2022/03/17 00:05:05;;;;;;;12.07;4.82;;;;;;;-3.10;45.79;101766.88;5027934;28;20037;-42
2022/03/17 00:07:31;;;;;;;9.90;4.70;;;;;;;-3.30;45.84;101737.84;5026222;28;20045;-41
2022/03/17 00:09:57;;;;;;;8.60;4.68;;;;;;;-3.14;46.37;101768.34;5028134;28;20072;-42
2022/03/17 00:12:23;;;;;;;9.93;4.75;;;;;;;-3.26;45.96;101747.38;5025937;28;20041;-41
2022/03/17 00:14:51;;;;;;;11.43;5.30;;;;;;;-3.15;46.04;101765.75;5009982;28;20037;-41
2022/03/17 00:17:17;;;;;;;10.63;4.43;;;;;;;-3.18;46.49;101761.34;5027727;28;20692;-41
2022/03/17 00:19:43;;;;;;;8.27;4.38;;;;;;;-3.18;46.32;101763.03;5008071;28;20046;-41
2022/03/17 00:22:08;;;;;;;10.35;4.43;;;;;;;-3.19;45.89;101768.94;5010464;28;20048;-42
2022/03/17 00:24:38;;;;;;;8.50;4.80;;;;;;;-3.22;46.36;101762.00;5021003;28;20037;-40
2022/03/17 00:27:08;;;;;;;8.27;4.35;;;;;;;-3.22;45.86;101768.75;5018131;28;20563;-40
2022/03/17 00:29:34;;;;;;;9.27;4.13;;;;;;;-3.26;46.40;101772.81;5050199;28;20045;-41
2022/03/17 00:32:01;;;;;;;9.90;4.28;;;;;;;-3.35;46.58;101758.72;5030055;28;20044;-41
2022/03/17 00:34:27;;;;;;;7.68;4.03;;;;;;;-3.34;46.51;101756.22;4999171;28;20103;-42
2022/03/17 00:36:52;;;;;;;12.10;4.10;;;;;;;-3.26;46.37;101780.44;5032499;28;20516;-42
2022/03/17 00:39:18;;;;;;;10.63;3.95;;;;;;;-3.26;46.18;101772.81;5033465;28;20072;-42
2022/03/17 00:41:44;;;;;;;9.85;3.95;;;;;;;-3.26;46.60;101775.34;5032033;28;20528;-43
2022/03/17 00:44:11;;;;;;;8.90;4.55;;;;;;;-3.26;46.98;101775.34;5033523;28;20046;-42
2022/03/17 00:46:37;;;;;;;12.00;4.10;;;;;;;-3.38;47.02;101763.63;5033619;28;20460;-40
2022/03/17 00:49:03;;;;;;;8.88;4.07;;;;;;;-3.30;46.65;101786.16;5016055;28;20045;-42
2022/03/17 00:51:30;;;;;;;7.28;3.92;;;;;;;-3.34;46.71;101786.75;5033830;28;20049;-41
2022/03/17 00:53:56;;;;;;;7.55;4.13;;;;;;;-3.33;46.68;101788.50;5033151;28;20037;-42
2022/03/17 00:56:22;;;;;;;6.60;3.60;;;;;;;-3.33;46.53;101792.72;5033184;28;20091;-42
2022/03/17 00:58:48;;;;;;;9.77;4.00;;;;;;;-3.34;47.22;101794.38;5032637;28;20084;-42
2022/03/17 01:01:17;;;;;;;8.38;4.28;;;;;;;-3.33;47.24;101790.16;5032686;28;20509;-42
2022/03/17 01:03:44;;;;;;;9.90;3.97;;;;;;;-3.37;47.13;101793.34;5031436;28;20042;-42
2022/03/17 01:06:10;;;;;;;10.95;4.32;;;;;;;-3.39;46.99;101795.78;5032086;28;20041;-42
2022/03/17 01:08:36;;;;;;;10.20;4.38;;;;;;;-3.37;47.63;101798.44;5032665;28;20535;-41
2022/03/17 01:11:03;;;;;;;8.10;3.95;;;;;;;-3.38;47.50;101799.22;5032953;28;20041;-41
2022/03/17 01:13:29;;;;;;;8.05;3.97;;;;;;;-3.59;47.29;101769.28;5033297;28;20041;-41
2022/03/17 01:15:55;;;;;;;12.43;4.30;;;;;;;-3.50;47.57;101786.69;5033211;28;20076;-42
2022/03/17 01:18:21;;;;;;;9.88;3.92;;;;;;;-3.43;47.92;101802.38;5033520;28;20065;-41
2022/03/17 01:20:48;;;;;;;8.75;4.00;;;;;;;-3.46;47.98;101798.81;5033104;28;20041;-42
2022/03/17 01:23:14;;;;;;;8.40;3.90;;;;;;;-3.47;47.56;101800.47;5014039;28;20046;-41
2022/03/17 01:25:40;;;;;;;10.35;4.03;;;;;;;-3.59;47.74;101784.53;5013659;28;20053;-43
2022/03/17 01:28:05;;;;;;;6.78;3.78;;;;;;;-3.45;48.23;101805.63;5029114;28;20044;-42
2022/03/17 01:30:31;;;;;;;8.45;3.92;;;;;;;-3.47;47.85;101800.47;5031576;28;20091;-41
2022/03/17 01:32:57;;;;;;;8.43;4.30;;;;;;;-3.48;48.11;101808.88;5032566;28;20072;-42
2022/03/17 01:35:23;;;;;;;8.70;4.68;;;;;;;-3.50;48.10;101810.47;5015377;28;20073;-42
2022/03/17 01:37:49;;;;;;;16.20;4.13;;;;;;;-3.52;47.74;101826.44;5033098;28;20096;-41
2022/03/17 01:40:15;;;;;;;10.55;4.20;;;;;;;-3.65;47.81;101807.06;5032679;28;20052;-40
2022/03/17 01:42:41;;;;;;;15.10;4.20;;;;;;;-3.58;48.26;101829.50;5030983;28;20060;-41
2022/03/17 01:45:08;;;;;;;10.38;5.10;;;;;;;-3.61;47.71;101825.91;5030221;28;20081;-42
2022/03/17 01:47:34;;;;;;;8.38;4.13;;;;;;;-3.83;47.85;101794.97;5032665;28;20433;-42
2022/03/17 01:50:09;;;;;;;13.38;4.68;;;;;;;-3.65;48.07;101829.94;5031086;28;20128;-41
2022/03/17 01:52:35;;;;;;;9.57;4.78;;;;;;;-3.66;47.57;101829.84;5030321;28;20061;-41
2022/03/17 01:55:02;;;;;;;10.82;4.38;;;;;;;-3.67;48.07;101834.06;5031511;28;20409;-41
2022/03/17 01:57:29;;;;;;;11.95;4.65;;;;;;;-3.89;47.66;101791.31;5022040;28;20034;-42
2022/03/17 01:59:55;;;;;;;9.30;4.68;;;;;;;-3.70;48.10;101830.47;5057720;28;20595;-41
2022/03/17 02:02:20;;;;;;;10.43;4.70;;;;;;;-3.72;48.30;101825.31;5024453;28;20502;-42
2022/03/17 02:04:49;;;;;;;8.00;4.40;;;;;;;-3.83;47.83;101810.22;5030134;28;20037;-40
2022/03/17 02:07:15;;;;;;;11.95;4.88;;;;;;;-3.76;48.21;101828.44;5012474;28;20481;-40
2022/03/17 02:09:43;;;;;;;11.38;5.03;;;;;;;-3.78;47.90;101830.03;5030382;28;20128;-42
2022/03/17 02:15:04;;;;;;;12.25;5.40;;;;;;;-3.78;48.22;101834.25;5030505;28;20033;-42
2022/03/17 02:17:31;;;;;;;9.38;5.05;;;;;;;-3.89;48.19;101819.25;5030748;28;20064;-41
2022/03/17 02:20:02;;;;;;;11.40;4.95;;;;;;;-3.78;47.98;101837.66;5031131;28;20037;-41
2022/03/17 02:22:29;;;;;;;9.82;4.65;;;;;;;-3.80;49.03;101838.34;5031516;28;20135;-41
2022/03/17 02:27:42;;;;;;;13.18;5.68;;;;;;;-3.88;48.60;101836.25;5031165;28;20037;-41
2022/03/17 02:30:10;;;;;;;9.98;4.50;;;;;;;-3.92;48.41;101828.34;5030940;28;20144;-42
2022/03/17 02:32:36;;;;;;;14.18;5.30;;;;;;;-3.91;48.68;101837.72;5031441;28;20493;-41
2022/03/17 02:35:08;;;;;;;9.07;4.65;;;;;;;-3.90;48.64;101842.03;5031731;28;20037;-40
2022/03/17 02:37:34;;;;;;;13.95;4.95;;;;;;;-3.88;48.24;101848.09;5031939;28;20462;-40
2022/03/17 02:40:01;;;;;;;11.93;5.30;;;;;;;-3.93;48.54;101844.41;5031969;28;21020;-41
2022/03/17 02:42:30;;;;;;;9.93;5.00;;;;;;;-4.01;48.34;101835.44;5030695;28;20069;-40
2022/03/17 02:44:59;;;;;;;14.30;4.80;;;;;;;-3.93;48.26;101867.25;5031812;28;20096;-42
2022/03/17 02:47:26;;;;;;;;;;;;;;;-3.93;48.51;101862.19;5030838;28;20034;-41
2022/03/17 02:49:55;;;;;;;8.82;4.25;;;;;;;-3.97;48.71;101865.31;5031221;28;19971;-42
2022/03/17 02:52:24;;;;;;;16.65;5.13;;;;;;;-4.00;48.01;101872.75;5012921;28;20136;-42
2022/03/17 02:54:50;;;;;;;10.23;4.78;;;;;;;-4.10;48.52;101863.72;5028495;28;20041;-40
2022/03/17 02:57:16;;;;;;;11.27;4.70;;;;;;;-4.02;48.36;101875.19;5030918;28;20083;-42
2022/03/17 02:59:42;;;;;;;11.80;5.32;;;;;;;-4.16;48.68;101860.81;5031475;28;20148;-42
2022/03/17 03:02:08;;;;;;;11.75;4.80;;;;;;;-4.09;48.31;101873.09;5026869;28;20128;-42
2022/03/17 03:04:34;;;;;;;10.23;4.72;;;;;;;-4.20;48.32;101863.97;5031276;28;20037;-41
2022/03/17 03:07:19;;;;;;;10.43;5.10;;;;;;;-4.29;48.59;101861.75;5030840;28;20107;-40
2022/03/17 03:09:44;;;;;;;10.93;4.72;;;;;;;-4.12;48.32;101893.22;5031338;28;20517;-42
2022/03/17 03:12:10;;;;;;;10.57;4.80;;;;;;;-4.13;48.45;101900.75;5028295;28;20038;-42
2022/03/17 03:14:36;;;;;;;11.60;4.75;;;;;;;-4.15;48.87;101895.59;5011480;28;20101;-43
2022/03/17 03:17:02;;;;;;;10.27;4.97;;;;;;;-4.16;48.64;101892.97;5033323;28;20038;-42
2022/03/17 03:19:28;;;;;;;9.05;4.75;;;;;;;-4.22;48.63;101890.03;5030745;28;20067;-41
2022/03/17 03:21:54;;;;;;;9.30;5.03;;;;;;;-4.17;49.14;101898.81;5030387;28;20065;-42
2022/03/17 03:24:20;;;;;;;13.63;5.80;;;;;;;-4.21;49.11;101900.31;5030981;28;20132;-42
2022/03/17 03:26:46;;;;;;;8.98;4.45;;;;;;;-4.39;48.65;101868.72;5029685;28;20045;-41
2022/03/17 03:29:23;;;;;;;13.98;5.40;;;;;;;-4.23;49.02;101904.41;5030779;28;20099;-41
2022/03/17 03:31:53;;;;;;;12.10;5.00;;;;;;;-4.27;48.50;101905.88;5029512;28;20053;-41
2022/03/17 03:34:19;;;;;;;10.98;5.50;;;;;;;-4.27;48.98;101905.88;5029157;28;20029;-43
2022/03/17 03:39:30;;;;;;;12.50;4.97;;;;;;;-4.28;48.49;101904.13;5030449;28;20521;-44
2022/03/17 03:41:56;;;;;;;18.13;5.25;;;;;;;-4.27;48.84;101908.44;5030046;28;20132;-42
2022/03/17 03:44:22;;;;;;;12.90;5.40;;;;;;;-4.35;48.67;101893.53;5023687;28;20528;-41
2022/03/17 03:46:48;;;;;;;21.77;6.45;;;;;;;-4.31;48.98;101911.56;5027905;28;20038;-42
2022/03/17 03:49:14;;;;;;;14.48;5.82;;;;;;;-4.27;49.07;101917.69;5030452;28;20040;-43
2022/03/17 03:51:40;;;;;;;11.68;5.13;;;;;;;-4.28;49.11;101923.56;5030523;28;20048;-41
2022/03/17 03:54:17;;;;;;;14.18;5.38;;;;;;;-4.29;49.20;101921.78;5029246;28;20038;-42
2022/03/17 03:56:45;;;;;;;21.73;6.18;;;;;;;-4.35;49.43;101912.19;5011069;28;20469;-42
2022/03/17 03:59:15;;;;;;;19.77;5.82;;;;;;;-4.33;49.49;101912.25;5026863;28;20081;-42
2022/03/17 04:01:41;;;;;;;13.50;5.63;;;;;;;-4.27;49.43;101935.47;5030432;28;20160;-41
2022/03/17 04:04:07;;;;;;;14.18;5.90;;;;;;;-4.25;49.24;101943.19;5029391;28;20454;-41
2022/03/17 04:06:47;;;;;;;19.23;5.60;;;;;;;-4.24;49.21;101938.22;5030151;28;20095;-41
2022/03/17 04:09:14;;;;;;;13.02;5.35;;;;;;;-4.20;49.37;101939.28;5029508;28;20126;-42
2022/03/17 04:11:41;;;;;;;14.50;6.13;;;;;;;-4.20;49.22;101942.69;5028511;28;20505;-41
2022/03/17 04:14:08;;;;;;;14.35;5.25;;;;;;;-4.15;49.25;101946.41;5028709;28;20167;-42
2022/03/17 04:16:34;;;;;;;17.98;5.80;;;;;;;-4.12;49.24;101946.56;5029854;28;20093;-41
2022/03/17 04:19:00;;;;;;;13.55;5.22;;;;;;;-4.09;49.55;101943.34;5030251;28;20409;-42
2022/03/17 04:21:26;;;;;;;11.52;4.70;;;;;;;-4.20;48.92;101922.38;5030111;28;20060;-42
2022/03/17 04:23:52;;;;;;;13.13;5.65;;;;;;;-4.08;48.96;101940.88;5029436;28;20045;-40
2022/03/17 04:26:18;;;;;;;11.77;4.68;;;;;;;-4.01;48.34;101948.09;5028910;28;20049;-42
2022/03/17 04:28:44;;;;;;;15.32;5.68;;;;;;;-3.96;49.25;101958.53;5018078;28;20065;-41
2022/03/17 04:31:09;;;;;;;13.48;5.35;;;;;;;-3.92;48.92;101957.91;5021598;28;20048;-41
2022/03/17 04:33:35;;;;;;;10.30;4.97;;;;;;;-3.89;48.35;101959.00;4995803;28;20075;-43
2022/03/17 04:36:05;;;;;;;15.23;5.43;;;;;;;-3.88;48.55;101968.38;5028394;28;20046;-40
2022/03/17 04:38:32;;;;;;;13.65;5.18;;;;;;;-3.85;48.43;101963.47;5029349;28;20044;-41
2022/03/17 04:40:58;;;;;;;16.58;6.43;;;;;;;-3.84;48.79;101964.34;5028673;28;20095;-42
2022/03/17 04:43:24;;;;;;;13.73;5.50;;;;;;;-3.81;47.97;101966.19;5029061;28;20045;-42
2022/03/17 04:45:51;;;;;;;22.02;6.32;;;;;;;-3.77;47.68;101965.59;5029065;28;20044;-42
2022/03/17 04:48:17;;;;;;;11.00;5.50;;;;;;;-3.74;47.95;101976.81;5029861;28;20406;-42
2022/03/17 04:50:43;;;;;;;11.50;5.05;;;;;;;-3.73;47.62;101970.09;5028444;28;20044;-43
2022/03/17 04:53:27;;;;;;;12.85;4.70;;;;;;;-3.70;47.52;101983.84;5027621;28;20053;-41
2022/03/17 04:56:03;;;;;;;14.18;5.03;;;;;;;-3.67;46.96;101985.69;5017155;28;20132;-44
2022/03/17 04:58:31;;;;;;;10.23;4.97;;;;;;;-3.62;47.11;101985.19;5019715;28;20437;-42
2022/03/17 05:00:57;;;;;;;11.00;5.88;;;;;;;-3.65;46.65;101977.38;5015165;28;20100;-42
2022/03/17 05:03:23;;;;;;;19.02;5.10;;;;;;;-3.52;46.47;101992.56;5029220;28;20041;-42
2022/03/17 05:05:50;;;;;;;12.25;5.07;;;;;;;-3.44;46.23;101998.09;5029656;28;20136;-42
2022/03/17 05:08:16;;;;;;;14.10;4.72;;;;;;;-3.38;46.51;102002.66;5028935;28;20128;-42
2022/03/17 05:10:43;;;;;;;12.68;6.07;;;;;;;-3.35;46.21;101995.22;5028442;28;20183;-42
2022/03/17 05:13:10;;;;;;;15.30;6.68;;;;;;;-3.38;46.15;101983.19;5027432;28;20160;-44
2022/03/17 05:15:36;;;;;;;24.40;5.60;;;;;;;-3.20;46.22;101996.13;5026434;28;20517;-41
2022/03/17 05:18:03;;;;;;;13.25;5.95;;;;;;;-3.13;45.82;102005.84;5029031;28;20071;-42
2022/03/17 05:20:29;;;;;;;15.38;5.85;;;;;;;-3.09;45.61;102001.00;5032116;28;20037;-43
2022/03/17 05:22:55;;;;;;;18.00;5.97;;;;;;;-3.03;45.57;102010.66;5031161;28;20095;-42
2022/03/17 05:25:21;;;;;;;24.45;6.68;;;;;;;-2.96;45.05;102010.22;5032998;28;20042;-42
2022/03/17 05:27:48;;;;;;;12.93;5.25;;;;;;;-2.88;45.72;102010.69;5031314;28;20050;-42
2022/03/17 05:30:16;;;;;;;17.52;5.60;;;;;;;-2.82;45.21;102013.56;5032905;28;20045;-41
2022/03/17 05:32:44;;;;;;;13.43;5.60;;;;;;;-2.86;45.13;101993.81;5028714;28;20127;-41
2022/03/17 05:35:10;;;;;;;16.63;5.75;;;;;;;-2.66;45.18;102006.88;5032619;28;20042;-42
2022/03/17 05:37:36;;;;;;;10.82;5.28;;;;;;;-2.52;44.27;102006.78;5033268;28;20043;-42
2022/03/17 05:40:04;;;;;;;13.15;5.30;;;;;;;-2.42;44.39;102011.59;5031787;28;20059;-41
2022/03/17 05:42:31;;;;;;;14.52;5.75;;;;;;;-2.34;43.76;101998.47;5031129;28;20118;-42
2022/03/17 05:44:57;;;;;;;24.00;6.53;;;;;;;-2.34;43.85;101990.81;5032559;28;20132;-42
2022/03/17 05:47:23;;;;;;;30.77;6.63;;;;;;;-2.06;43.32;102016.13;5030954;28;20164;-43
2022/03/17 05:49:49;;;;;;;14.30;5.15;;;;;;;-1.80;43.08;102013.28;5012040;28;20038;-45
2022/03/17 05:52:15;;;;;;;26.88;5.78;;;;;;;-1.42;42.44;102017.84;5030998;28;20527;-43
2022/03/17 05:54:41;;;;;;;27.23;6.95;;;;;;;-1.06;41.46;102000.06;5020199;28;20064;-47
2022/03/17 05:57:09;;;;;;;19.15;6.75;;;;;;;-0.28;40.81;102009.78;5030868;28;20453;-41
2022/03/17 05:59:39;;;;;;;18.30;6.13;;;;;;;0.74;38.99;102026.34;5029290;28;20475;-41
2022/03/17 06:02:05;;;;;;;;;;;;;;;1.74;36.91;102021.91;5016041;28;20075;-42
2022/03/17 06:04:31;;;;;;;23.67;8.23;;;;;;;2.54;35.07;102019.81;5030937;28;19978;-42
2022/03/17 06:06:56;;;;;;;12.30;5.57;;;;;;;3.17;33.88;101997.13;5031289;28;20258;-43
2022/03/17 06:09:22;;;;;;;17.13;5.97;;;;;;;4.16;32.87;102007.88;5027553;28;20050;-44
2022/03/17 06:11:48;;;;;;;13.48;5.68;;;;;;;5.17;31.33;102025.25;5008332;28;20051;-41
2022/03/17 06:14:13;;;;;;;22.25;5.93;;;;;;;5.98;30.70;102017.72;5031251;28;20038;-42
2022/03/17 06:16:39;;;;;;;22.27;6.63;;;;;;;6.68;29.20;102025.19;5030718;28;20049;-43
2022/03/17 06:19:05;;;;;;;21.63;5.57;;;;;;;7.40;28.02;102029.91;5041377;28;20122;-43
2022/03/17 06:21:31;;;;;;;24.80;6.28;;;;;;;8.03;27.01;102030.00;5016382;28;20454;-42
2022/03/17 06:23:56;;;;;;;22.00;5.90;;;;;;;8.69;26.41;102025.66;5028866;28;20375;-43
2022/03/17 06:26:22;;;;;;;20.73;6.88;;;;;;;9.11;25.07;102026.06;5029687;28;20084;-43
2022/03/17 06:28:48;;;;;;;18.25;7.18;;;;;;;9.54;24.98;102023.81;5030165;28;20065;-43
2022/03/17 06:31:13;;;;;;;20.80;7.32;;;;;;;10.15;24.17;102023.31;5013762;28;20052;-43
2022/03/17 06:33:39;;;;;;;21.52;7.30;;;;;;;10.75;23.28;102034.00;5025936;28;20060;-44
2022/03/17 06:36:05;;;;;;;26.92;6.45;;;;;;;11.27;22.01;102030.59;5031176;28;20053;-44
2022/03/17 06:38:31;;;;;;;19.48;6.65;;;;;;;11.80;22.15;102021.91;5039079;28;20485;-42
2022/03/17 06:40:57;;;;;;;16.42;5.90;;;;;;;12.49;21.30;102030.38;5032183;28;20051;-41
2022/03/17 06:43:22;;;;;;;14.77;5.97;;;;;;;12.98;20.14;102028.34;5042210;28;20076;-42
2022/03/17 06:45:49;;;;;;;16.45;6.20;;;;;;;13.47;19.50;102029.72;5050138;28;20045;-44
2022/03/17 06:48:15;;;;;;;22.33;6.75;;;;;;;14.01;19.26;102032.69;5037771;28;20494;-42
2022/03/17 06:50:41;;;;;;;16.40;6.20;;;;;;;14.33;18.44;102032.31;5029658;28;20563;-41
2022/03/17 06:53:07;;;;;;;15.43;6.60;;;;;;;13.72;18.76;102032.09;5031332;28;20037;-41
2022/03/17 06:55:33;;;;;;;21.88;6.35;;;;;;;13.54;18.63;102027.94;5031946;28;20459;-40
2022/03/17 06:58:00;;;;;;;17.00;6.82;;;;;;;14.17;18.10;102023.78;5031831;28;20502;-41
2022/03/17 07:00:26;;;;;;;14.32;6.35;;;;;;;14.83;17.47;102018.56;5031318;28;20069;-41
2022/03/17 07:02:52;;;;;;;19.45;8.05;;;;;;;15.33;16.85;102027.41;5029538;28;20073;-41
2022/03/17 07:05:17;;;;;;;14.38;5.93;;;;;;;15.25;16.75;102025.78;5011741;28;20054;-43
2022/03/17 07:07:46;;;;;;;15.35;6.10;;;;;;;15.11;16.66;102008.53;5040822;28;20516;-41
2022/03/17 07:10:15;;;;;;;24.95;7.93;;;;;;;14.88;16.68;102023.72;5014498;28;20042;-42
2022/03/17 07:12:44;;;;;;;19.40;7.15;;;;;;;15.12;16.64;102028.63;5032859;28;20501;-41
2022/03/17 07:15:10;;;;;;;17.33;6.70;;;;;;;15.26;16.42;102032.75;5028240;28;20100;-43
2022/03/17 07:17:41;;;;;;;16.48;6.50;;;;;;;15.26;16.35;102039.75;5019661;28;20565;-41
2022/03/17 07:20:12;;;;;;;12.50;5.82;;;;;;;15.67;15.37;102034.69;5008353;28;20083;-41
2022/03/17 07:22:40;;;;;;;23.65;6.05;;;;;;;16.40;14.94;102022.78;5037928;28;20049;-42
2022/03/17 07:25:07;;;;;;;18.38;5.88;;;;;;;17.09;14.41;102022.13;5008485;28;20041;-42
2022/03/17 07:27:43;;;;;;;14.63;5.68;;;;;;;17.17;14.29;102025.41;5022737;28;20415;-41
2022/03/17 07:30:20;;;;;;;21.02;7.28;;;;;;;17.31;14.23;102025.97;5022139;28;20037;-41
2022/03/17 07:32:48;;;;;;;23.73;6.05;;;;;;;17.77;13.66;102030.94;5023334;28;20073;-41
2022/03/17 07:35:14;;;;;;;11.98;4.57;;;;;;;18.31;13.08;102027.69;5021255;28;20043;-42
2022/03/17 07:37:41;;;;;;;20.33;6.68;;;;;;;18.04;13.15;102033.72;5022621;28;20048;-42
2022/03/17 07:40:08;;;;;;;15.50;4.78;;;;;;;18.00;12.76;102032.09;5058071;28;20041;-40
2022/03/17 07:42:35;;;;;;;11.20;4.25;;;;;;;18.02;12.59;102020.59;5022174;28;20040;-42
2022/03/17 07:45:19;;;;;;;8.82;3.65;;;;;;;18.60;12.21;102013.66;5021703;28;20046;-40
2022/03/17 07:48:14;;;;;;;10.43;4.18;;;;;;;18.93;12.14;102035.50;5007407;28;20582;-40
2022/03/17 07:50:50;;;;;;;14.15;4.57;;;;;;;19.38;11.86;102036.63;5007662;28;20060;-41
2022/03/17 07:53:17;;;;;;;12.65;4.72;;;;;;;19.85;12.14;102035.03;5024826;28;20505;-41
2022/03/17 07:55:43;;;;;;;14.05;4.95;;;;;;;20.18;11.48;102042.66;5029678;28;20041;-41
2022/03/17 07:58:12;;;;;;;16.13;5.40;;;;;;;20.48;11.43;102038.03;5028158;28;20425;-43
2022/03/17 08:00:39;;;;;;;;;;;;;;;20.54;11.50;102028.09;5026769;28;20509;-40
2022/03/17 08:03:05;;;;;;;16.27;5.10;;;;;;;20.39;11.41;102019.91;5021889;28;19927;-41
2022/03/17 08:05:31;;;;;;;12.35;5.05;;;;;;;20.30;11.27;102042.22;5024251;28;20041;-40
2022/03/17 08:07:56;;;;;;;18.63;5.15;;;;;;;20.21;11.14;102037.25;5017977;28;20049;-40
2022/03/17 08:10:22;;;;;;;14.13;5.32;;;;;;;20.30;11.14;102037.81;5009912;28;20048;-41
2022/03/17 08:12:48;;;;;;;18.15;4.57;;;;;;;20.50;11.02;102039.72;5011889;28;20473;-41
2022/03/17 08:15:15;;;;;;;12.27;4.78;;;;;;;20.65;10.86;102046.19;5054486;28;20117;-40
2022/03/17 08:17:41;;;;;;;12.93;5.80;;;;;;;20.94;10.85;102034.47;5014301;28;20064;-41
2022/03/17 08:20:08;;;;;;;19.08;5.22;;;;;;;21.33;10.38;102043.47;5026462;28;20500;-41
2022/03/17 08:22:34;;;;;;;16.27;6.15;;;;;;;21.39;10.20;102043.22;5000426;28;20468;-39
2022/03/17 08:25:00;;;;;;;13.43;5.40;;;;;;;21.29;10.11;102038.38;5032386;28;20037;-40
2022/03/17 08:27:26;;;;;;;14.23;4.53;;;;;;;21.47;10.08;102049.03;5030531;28;20041;-42
2022/03/17 08:29:52;;;;;;;16.05;5.05;;;;;;;21.74;9.79;102054.09;5043281;28;20535;-41
2022/03/17 08:32:17;;;;;;;11.85;4.32;;;;;;;21.66;9.78;102043.84;5048947;28;20085;-40
2022/03/17 08:34:43;;;;;;;10.68;4.22;;;;;;;21.96;9.60;102050.50;5030576;28;20041;-41
2022/03/17 08:37:09;;;;;;;10.55;4.03;;;;;;;21.60;9.88;102032.66;5027489;28;20116;-41
2022/03/17 08:39:35;;;;;;;7.75;4.20;;;;;;;21.71;10.16;102049.81;5023182;28;20098;-41
2022/03/17 08:42:01;;;;;;;10.88;4.15;;;;;;;21.73;10.04;102050.59;5030637;28;20050;-42
2022/03/17 08:44:27;;;;;;;10.88;3.70;;;;;;;21.70;9.97;102044.56;5024681;28;20535;-40
2022/03/17 08:49:37;;;;;;;9.90;3.60;;;;;;;22.53;9.46;102050.56;5020719;28;20128;-40
2022/03/17 08:52:04;;;;;;;9.48;3.40;;;;;;;22.74;9.21;102060.19;5022536;28;20202;-42
2022/03/17 08:54:33;;;;;;;15.38;5.60;;;;;;;22.77;9.09;102052.09;5021829;28;20026;-42
2022/03/17 08:57:01;;;;;;;;;;;;;;;22.98;9.10;102060.81;5025787;28;20071;-40
2022/03/17 08:59:30;;;;;;;12.27;3.13;;;;;;;23.05;8.81;102056.94;5022814;28;19924;-42
2022/03/17 09:01:57;;;;;;;8.88;3.70;;;;;;;23.06;8.76;102061.31;5014819;28;20049;-41
2022/03/17 09:04:23;;;;;;;10.02;3.63;;;;;;;23.42;8.74;102063.94;5022672;28;20033;-42
2022/03/17 09:06:48;;;;;;;13.02;3.38;;;;;;;23.31;8.58;102061.84;5027410;28;20051;-41
2022/03/17 09:09:14;;;;;;;12.95;4.22;;;;;;;23.46;8.45;102057.56;5025653;28;20041;-40
2022/03/17 09:11:40;;;;;;;6.80;2.80;;;;;;;23.29;8.55;102058.38;5033278;28;20041;-41
2022/03/17 09:14:07;;;;;;;15.23;2.97;;;;;;;23.17;8.64;102062.53;5025859;28;20052;-41
2022/03/17 09:16:33;;;;;;;10.40;4.55;;;;;;;23.18;8.47;102056.28;5037860;28;20064;-41
2022/03/17 09:18:59;;;;;;;8.63;5.38;;;;;;;23.09;8.37;102051.41;5027955;28;20038;-42
2022/03/17 09:21:27;;;;;;;6.78;2.88;;;;;;;23.13;8.29;102060.09;5028781;28;20167;-41
2022/03/17 09:23:54;;;;;;;5.35;2.85;;;;;;;23.22;8.52;102052.53;5032248;28;20037;-42
2022/03/17 09:26:20;;;;;;;13.55;3.55;;;;;;;23.21;8.37;102057.91;5025017;28;20049;-40
2022/03/17 09:28:45;;;;;;;9.63;2.92;;;;;;;23.35;8.29;102049.25;5023032;28;20472;-41
2022/03/17 09:31:11;;;;;;;5.30;2.78;;;;;;;23.28;8.33;102059.34;5027374;28;20536;-40
2022/03/17 09:33:37;;;;;;;13.15;3.88;;;;;;;23.50;8.35;102054.69;5020705;28;20041;-43
2022/03/17 09:36:03;;;;;;;6.97;2.70;;;;;;;23.99;8.42;102060.13;5003449;28;20042;-40
2022/03/17 09:38:28;;;;;;;11.05;3.60;;;;;;;23.86;8.51;102043.13;5053814;28;20117;-41
2022/03/17 09:40:55;;;;;;;7.45;2.70;;;;;;;23.84;8.38;102045.00;5024207;28;20520;-43
2022/03/17 09:43:28;;;;;;;8.57;3.40;;;;;;;23.97;8.60;102065.53;5025965;28;20067;-40
2022/03/17 09:45:56;;;;;;;9.75;3.15;;;;;;;24.44;8.31;102054.22;5028615;28;20037;-42
2022/03/17 09:48:26;;;;;;;8.67;2.70;;;;;;;24.52;8.23;102051.97;5027954;28;20041;-40
2022/03/17 09:50:56;;;;;;;4.32;2.75;;;;;;;24.67;7.95;102052.94;5059313;28;20075;-43
2022/03/17 09:53:23;;;;;;;5.80;2.90;;;;;;;24.73;8.01;102050.78;5028060;28;20038;-42
2022/03/17 09:55:50;;;;;;;5.15;2.63;;;;;;;25.03;8.04;102047.38;5030099;28;20124;-42
2022/03/17 09:58:16;;;;;;;6.15;2.60;;;;;;;25.30;7.77;102038.66;5004424;28;20191;-43
2022/03/17 10:00:48;;;;;;;10.02;3.22;;;;;;;25.16;7.93;102016.44;5022318;28;20090;-41
2022/03/17 10:03:21;;;;;;;6.43;2.80;;;;;;;24.81;7.83;102040.56;5036674;28;20410;-41
2022/03/17 10:05:48;;;;;;;5.53;2.72;;;;;;;23.93;8.13;102040.06;5024749;28;20141;-41
2022/03/17 10:08:15;;;;;;;5.82;2.75;;;;;;;23.56;8.33;102019.00;5027573;28;20051;-41
2022/03/17 10:10:42;;;;;;;9.15;2.92;;;;;;;23.58;8.17;102025.97;5046132;28;20053;-41
2022/03/17 10:13:31;;;;;;;12.10;3.20;;;;;;;23.61;8.14;102027.59;5020401;28;20042;-41
2022/03/17 10:16:24;;;;;;;10.27;2.80;;;;;;;23.21;7.97;102029.56;5030255;28;20045;-41
2022/03/17 10:18:57;;;;;;;6.30;2.42;;;;;;;22.92;8.08;102006.28;5023490;28;20571;-41
2022/03/17 10:21:27;;;;;;;7.93;3.17;;;;;;;23.32;8.11;102014.91;5029059;28;20128;-41
2022/03/17 10:23:57;;;;;;;5.78;2.63;;;;;;;23.91;7.90;102022.50;5023904;28;20037;-40
2022/03/17 10:26:38;;;;;;;14.68;3.42;;;;;;;24.27;7.76;102017.03;5028336;28;20049;-41
2022/03/17 10:29:12;;;;;;;7.50;2.60;;;;;;;24.49;7.58;102021.06;5055673;28;20884;-41
2022/03/17 10:32:02;;;;;;;5.05;2.30;;;;;;;24.32;7.66;102020.31;5028845;28;20053;-42
2022/03/17 10:34:47;;;;;;;7.60;2.55;;;;;;;24.35;7.75;102017.47;5062230;28;20075;-41
2022/03/17 10:37:19;;;;;;;12.40;2.55;;;;;;;24.07;7.87;102008.28;5029594;28;20064;-41
2022/03/17 10:39:48;;;;;;;10.43;2.83;;;;;;;24.20;7.84;102012.97;5029254;28;20033;-41
2022/03/17 10:42:26;;;;;;;7.32;3.05;;;;;;;24.13;8.06;102023.03;5031782;28;20045;-41
2022/03/17 10:45:05;;;;;;;7.95;2.58;;;;;;;24.33;7.53;102011.38;5013565;28;20038;-40
2022/03/17 10:47:38;;;;;;;;;;;;;;;24.63;7.79;102016.81;5032558;28;20591;-40
2022/03/17 10:50:05;;;;;;;10.57;2.60;;;;;;;24.60;7.62;102009.84;5061833;28;20034;-41
2022/03/17 10:52:50;;;;;;;5.82;2.40;;;;;;;24.68;7.70;102007.63;5030142;28;20048;-40
2022/03/17 10:55:24;;;;;;;7.75;3.25;;;;;;;24.36;7.84;101988.13;5020309;28;20430;-41
2022/03/17 10:57:50;;;;;;;11.27;3.85;;;;;;;24.50;7.90;102008.63;5008433;28;20060;-41
2022/03/17 11:00:27;;;;;;;4.60;2.75;;;;;;;24.41;7.73;102009.16;5013724;28;20246;-41
2022/03/17 11:02:57;;;;;;;11.55;2.97;;;;;;;24.07;7.87;102002.13;5030499;28;20099;-41
2022/03/17 11:05:24;;;;;;;11.73;3.95;;;;;;;23.87;8.18;101992.53;5031267;28;20505;-41
2022/03/17 11:07:51;;;;;;;4.63;2.67;;;;;;;24.04;8.18;102008.47;5030000;28;20545;-41
2022/03/17 11:10:19;;;;;;;9.38;3.75;;;;;;;24.34;7.94;102003.31;5020199;28;20416;-42
2022/03/17 11:12:45;;;;;;;12.35;3.13;;;;;;;24.35;8.02;102001.50;5011531;28;20046;-43
2022/03/17 11:15:12;;;;;;;7.45;2.95;;;;;;;24.49;7.77;102001.63;5011795;28;20037;-42
2022/03/17 11:17:49;;;;;;;5.95;2.75;;;;;;;24.70;7.78;102002.22;5034814;28;20124;-43
2022/03/17 11:20:22;;;;;;;4.45;3.00;;;;;;;24.59;7.66;101989.53;5028227;28;20195;-43
2022/03/17 11:23:09;;;;;;;7.53;3.30;;;;;;;24.74;7.50;101998.44;5031262;28;20556;-42
2022/03/17 11:25:35;;;;;;;4.35;2.72;;;;;;;24.73;7.66;101986.06;5019987;28;20053;-42
2022/03/17 11:28:03;;;;;;;8.15;2.75;;;;;;;24.78;7.94;101979.53;5010060;28;20136;-42
2022/03/17 11:30:52;;;;;;;5.15;2.88;;;;;;;24.79;7.69;101986.59;5029692;28;20056;-42
2022/03/17 11:33:39;;;;;;;9.80;2.70;;;;;;;24.35;7.65;101975.78;5035232;28;20489;-42
2022/03/17 11:36:07;;;;;;;8.45;2.50;;;;;;;24.31;8.00;101986.66;5022451;28;20045;-42
2022/03/17 11:38:37;;;;;;;;;;;;;;;24.26;8.10;101997.56;5027090;28;20564;-44